createdAt,value
2022-11-11T00:03:58.610Z,64.23
2022-11-11T00:08:59.923Z,64.16
2022-11-11T00:14:01.141Z,64.26
2022-11-11T00:19:21.151Z,64.36
2022-11-11T00:24:50.053Z,64.27
2022-11-11T00:29:51.351Z,64.49
2022-11-11T00:35:13.700Z,64.08
2022-11-11T00:40:16.219Z,64.52
2022-11-11T00:45:18.806Z,64.56
2022-11-11T00:50:48.379Z,63.73
2022-11-11T00:55:51.283Z,64.23
2022-11-11T01:00:53.091Z,64.49
2022-11-11T01:05:59.211Z,64.36
2022-11-11T01:11:00.730Z,64.75
2022-11-11T01:16:07.780Z,64.39
2022-11-11T01:21:27.827Z,64.82
2022-11-11T01:26:31.755Z,65.69
2022-11-11T01:31:33.590Z,65.78
2022-11-11T01:36:34.839Z,65.41
2022-11-11T01:41:37.300Z,65.96
2022-11-11T01:46:57.277Z,65.24
2022-11-11T01:52:23.747Z,65.26
2022-11-11T01:57:32.276Z,65.04
2022-11-11T02:02:40.231Z,64.77
2022-11-11T02:07:42.065Z,64.91
2022-11-11T02:13:02.243Z,64.68
2022-11-11T02:18:04.844Z,64.54
2022-11-11T02:23:44.080Z,64.16
2022-11-11T02:28:45.527Z,64.23
2022-11-11T02:33:46.754Z,64.69
2022-11-11T02:38:48.359Z,64.63
2022-11-11T02:43:49.961Z,65.06
2022-11-11T02:48:51.327Z,64.81
2022-11-11T02:53:57.803Z,64.83
2022-11-11T02:58:59.034Z,65.00
2022-11-11T03:04:00.389Z,64.77
2022-11-11T03:09:03.110Z,65.22
2022-11-11T03:14:04.926Z,64.57
2022-11-11T03:19:06.426Z,64.52
2022-11-11T03:24:08.000Z,64.37
2022-11-11T03:29:09.131Z,64.30
2022-11-11T03:34:29.148Z,63.97
2022-11-11T03:39:30.590Z,64.06
2022-11-11T03:44:31.747Z,63.75
2022-11-11T03:49:32.986Z,63.76
2022-11-11T03:54:34.192Z,63.77
2022-11-11T03:59:35.430Z,64.12
2022-11-11T04:04:54.924Z,64.30
2022-11-11T04:10:14.572Z,64.23
2022-11-11T04:15:34.641Z,64.38
2022-11-11T04:20:54.543Z,64.36
2022-11-11T04:26:00.189Z,64.25
2022-11-11T04:31:01.344Z,64.41
2022-11-11T04:36:02.763Z,64.60
2022-11-11T04:41:04.079Z,64.73
2022-11-11T04:46:05.224Z,64.83
2022-11-11T04:51:06.417Z,64.64
2022-11-11T04:56:26.870Z,64.59
2022-11-11T05:01:46.139Z,64.53
2022-11-11T05:07:06.358Z,64.53
2022-11-11T05:12:07.656Z,64.30
2022-11-11T05:17:28.005Z,64.08
2022-11-11T05:22:34.507Z,63.89
2022-11-11T05:27:35.980Z,63.87
2022-11-11T05:32:38.394Z,64.02
2022-11-11T05:37:40.594Z,64.02
2022-11-11T05:42:47.284Z,63.91
2022-11-11T05:47:50.853Z,63.93
2022-11-11T05:52:51.964Z,63.96
2022-11-11T05:57:53.438Z,63.89
2022-11-11T06:03:02.360Z,63.83
2022-11-11T06:08:03.902Z,63.65
2022-11-11T06:13:06.801Z,63.56
2022-11-11T06:18:07.969Z,63.62
2022-11-11T06:23:09.835Z,63.73
2022-11-11T06:28:11.490Z,64.07
2022-11-11T06:33:12.700Z,63.57
2022-11-11T06:38:14.148Z,63.20
2022-11-11T06:43:15.362Z,63.00
2022-11-11T06:48:16.872Z,62.94
2022-11-11T06:53:21.848Z,62.88
2022-11-11T06:58:24.259Z,62.87
2022-11-11T07:03:26.137Z,62.89
2022-11-11T07:08:27.883Z,62.84
2022-11-11T07:13:29.652Z,63.09
2022-11-11T07:18:30.819Z,62.86
2022-11-11T07:23:32.023Z,62.82
2022-11-11T07:28:33.561Z,62.24
2022-11-11T07:33:34.729Z,62.14
2022-11-11T07:38:35.872Z,61.70
2022-11-11T07:43:37.027Z,61.38
2022-11-11T07:48:38.204Z,61.22
2022-11-11T07:53:39.356Z,61.12
2022-11-11T07:58:40.587Z,61.23
2022-11-11T08:03:48.858Z,61.08
2022-11-11T08:08:50.177Z,61.38
2022-11-11T08:13:51.375Z,61.43
2022-11-11T08:18:53.696Z,61.30
2022-11-11T08:24:48.679Z,61.18
2022-11-11T08:29:16.217Z,60.50
2022-11-11T08:34:17.319Z,60.82
2022-11-11T08:39:18.461Z,60.62
2022-11-11T08:44:19.689Z,60.63
2022-11-11T08:49:20.804Z,60.42
2022-11-11T08:54:22.966Z,60.31
2022-11-11T08:59:24.212Z,60.43
2022-11-11T09:09:46.281Z,60.83
2022-11-11T09:14:49.268Z,61.31
2022-11-11T09:19:50.343Z,61.05
2022-11-11T09:24:51.435Z,60.56
2022-11-11T09:29:53.042Z,60.42
2022-11-11T09:34:54.743Z,60.45
2022-11-11T09:39:55.961Z,59.85
2022-11-11T09:45:34.848Z,59.92
2022-11-11T09:50:41.014Z,58.56
2022-11-11T09:55:51.626Z,65.12
2022-11-11T10:01:18.379Z,64.03
2022-11-11T10:06:24.593Z,61.87
2022-11-11T10:11:38.333Z,62.44
2022-11-11T10:16:51.335Z,60.87
2022-11-11T10:22:12.200Z,60.48
2022-11-11T10:27:20.404Z,58.56
2022-11-11T10:32:25.728Z,64.73
2022-11-11T10:37:39.908Z,64.08
2022-11-11T10:42:43.844Z,62.78
2022-11-11T10:47:55.980Z,61.51
2022-11-11T10:53:25.745Z,60.55
2022-11-11T10:58:34.393Z,60.46
2022-11-11T11:03:46.707Z,58.68
2022-11-11T11:08:59.236Z,61.56
2022-11-11T11:14:05.696Z,63.47
2022-11-11T11:19:21.511Z,61.47
2022-11-11T11:24:30.976Z,60.42
2022-11-11T11:29:41.685Z,60.29
2022-11-11T11:34:54.732Z,63.84
2022-11-11T11:40:01.196Z,63.05
2022-11-11T11:45:29.421Z,61.26
2022-11-11T11:50:42.020Z,60.32
2022-11-11T11:55:54.111Z,60.48
2022-11-11T12:01:14.152Z,60.00
2022-11-11T12:06:28.789Z,59.88
2022-11-11T12:11:48.853Z,59.76
2022-11-11T12:16:56.455Z,60.08
2022-11-11T12:22:22.639Z,60.58
2022-11-11T12:27:38.764Z,60.69
2022-11-11T12:33:17.771Z,60.69
2022-11-11T12:38:43.251Z,60.85
2022-11-11T12:44:03.741Z,60.23
2022-11-11T12:49:42.557Z,60.21
2022-11-11T12:55:02.825Z,60.11
2022-11-11T13:00:24.180Z,59.76
2022-11-11T13:05:40.635Z,59.72
2022-11-11T13:10:51.941Z,59.56
2022-11-11T13:15:55.515Z,58.77
2022-11-11T13:21:02.376Z,60.86
2022-11-11T13:26:13.527Z,65.61
2022-11-11T13:31:30.952Z,64.20
2022-11-11T13:36:42.365Z,62.55
2022-11-11T13:41:50.783Z,61.94
2022-11-11T13:47:12.230Z,61.64
2022-11-11T13:52:34.817Z,60.71
2022-11-11T13:57:49.488Z,60.80
2022-11-11T14:03:28.476Z,60.54
2022-11-11T14:08:51.122Z,60.73
2022-11-11T14:13:56.567Z,60.74
2022-11-11T14:18:57.921Z,60.61
2022-11-11T14:23:59.218Z,60.21
2022-11-11T14:29:04.831Z,60.19
2022-11-11T14:34:36.501Z,60.14
2022-11-11T14:39:56.685Z,60.22
2022-11-11T14:44:57.933Z,60.32
2022-11-11T14:49:59.889Z,60.29
2022-11-11T14:55:01.496Z,60.23
2022-11-11T15:00:12.271Z,60.38
2022-11-11T15:05:19.998Z,60.69
2022-11-11T15:10:39.738Z,60.85
2022-11-11T15:15:47.441Z,60.92
2022-11-11T15:21:07.359Z,60.92
2022-11-11T15:26:23.097Z,61.14
2022-11-11T15:32:02.472Z,61.15
2022-11-11T15:37:13.142Z,60.98
2022-11-11T15:42:33.303Z,61.18
2022-11-11T15:47:35.940Z,61.28
2022-11-11T15:52:37.287Z,61.25
2022-11-11T15:57:38.799Z,61.24
2022-11-11T16:02:42.443Z,61.44
2022-11-11T16:07:45.759Z,61.47
2022-11-11T16:12:56.934Z,62.01
2022-11-11T16:18:04.615Z,62.08
2022-11-11T16:23:08.222Z,62.47
2022-11-11T16:28:12.395Z,62.51
2022-11-11T16:33:34.150Z,62.56
2022-11-11T16:38:37.839Z,62.55
2022-11-11T16:43:42.451Z,62.51
2022-11-11T16:48:47.785Z,62.78
2022-11-11T16:54:07.694Z,62.85
2022-11-11T16:59:14.712Z,63.31
2022-11-11T17:04:15.969Z,62.70
2022-11-11T17:09:38.033Z,63.00
2022-11-11T17:14:39.192Z,63.18
2022-11-11T17:19:40.810Z,63.29
2022-11-11T17:24:41.990Z,62.96
2022-11-11T17:29:43.080Z,62.97
2022-11-11T17:34:44.215Z,62.86
2022-11-11T17:39:45.811Z,63.12
2022-11-11T17:44:46.931Z,63.08
2022-11-11T17:49:56.490Z,62.98
2022-11-11T17:54:58.481Z,63.36
2022-11-11T17:59:59.567Z,63.31
2022-11-11T18:05:00.755Z,63.29
2022-11-11T18:10:02.332Z,63.33
2022-11-11T18:15:05.739Z,62.93
2022-11-11T18:20:07.819Z,63.11
2022-11-11T18:25:09.805Z,63.18
2022-11-11T18:30:11.155Z,63.12
2022-11-11T18:35:12.743Z,62.87
2022-11-11T18:40:14.279Z,62.85
2022-11-11T18:45:16.407Z,62.74
2022-11-11T18:50:19.140Z,62.63
2022-11-11T18:55:20.288Z,62.64
2022-11-11T19:00:22.506Z,62.50
2022-11-11T19:05:23.638Z,62.63
2022-11-11T19:10:25.208Z,62.79
2022-11-11T19:15:26.570Z,62.73
2022-11-11T19:20:27.698Z,62.84
2022-11-11T19:25:33.353Z,62.65
2022-11-11T19:30:35.104Z,62.69
2022-11-11T19:35:36.257Z,62.97
2022-11-11T19:40:40.203Z,63.03
2022-11-11T19:45:41.821Z,63.02
2022-11-11T19:50:44.007Z,63.36
2022-11-11T19:56:05.632Z,63.35
2022-11-11T20:01:10.843Z,63.29
2022-11-11T20:06:32.960Z,63.29
2022-11-11T20:11:35.764Z,63.35
2022-11-11T20:16:36.931Z,63.43
2022-11-11T20:21:39.178Z,63.54
2022-11-11T20:26:40.379Z,63.58
2022-11-11T20:31:41.585Z,63.68
2022-11-11T20:36:42.684Z,63.89
2022-11-11T20:41:43.773Z,64.14
2022-11-11T20:46:45.159Z,63.72
2022-11-11T20:51:46.260Z,63.61
2022-11-11T20:56:48.316Z,64.00
2022-11-11T21:01:49.507Z,63.93
2022-11-11T21:06:50.760Z,63.87
2022-11-11T21:11:52.331Z,63.90
2022-11-11T21:16:53.506Z,63.68
2022-11-11T21:21:54.546Z,63.76
2022-11-11T21:26:55.621Z,63.65
2022-11-11T21:31:56.712Z,63.44
2022-11-11T21:36:57.916Z,63.52
2022-11-11T21:41:59.073Z,63.31
2022-11-11T21:47:00.235Z,63.21
2022-11-11T21:52:01.289Z,63.23
2022-11-11T21:57:02.458Z,63.33
2022-11-11T22:02:03.631Z,63.06
2022-11-11T22:07:04.914Z,62.78
2022-11-11T22:12:06.454Z,63.03
2022-11-11T22:17:07.628Z,63.04
2022-11-11T22:22:08.826Z,63.22
2022-11-11T22:27:09.933Z,63.23
2022-11-11T22:32:12.360Z,63.27
2022-11-11T22:37:13.486Z,63.31
2022-11-11T22:42:14.702Z,63.27
2022-11-11T22:47:15.942Z,63.25
2022-11-11T22:52:17.099Z,63.30
2022-11-11T22:57:18.240Z,63.04
2022-11-11T23:02:19.478Z,62.85
2022-11-11T23:07:20.715Z,62.73
2022-11-11T23:12:23.902Z,62.77
2022-11-11T23:17:25.075Z,62.80
2022-11-11T23:22:26.409Z,62.82
2022-11-11T23:27:27.579Z,62.72
2022-11-11T23:32:28.724Z,62.64
2022-11-11T23:37:30.411Z,62.65
2022-11-11T23:42:31.561Z,62.60
2022-11-11T23:47:33.009Z,62.51
2022-11-11T23:52:35.479Z,62.43
2022-11-11T23:57:36.559Z,62.46
